Time;durP1;ratioP1;P1;durP2;ratioP2;P2;SDS_P1;SDS_P2;PMS_P1;PMS_P2;Temp;Humidity;BMP_temperature;BMP_pressure;BME280_temperature;BME280_humidity;BME280_pressure;Samples;Min_cycle;Max_cycle;Signal;HPM_P1;HPM_P2
2023/06/25 00:02:07;;;;;;;0.82;0.82;;;21.00;99.90;;;;;;5141320;27;20087;-66
2023/06/25 00:04:32;;;;;;;0.45;0.45;;;20.90;99.90;;;;;;5138555;27;20059;-66
2023/06/25 00:06:58;;;;;;;0.10;0.10;;;20.90;99.90;;;;;;5140694;27;20046;-66
2023/06/25 00:09:24;;;;;;;0.20;0.10;;;20.90;99.90;;;;;;5145443;27;20034;-66
2023/06/25 00:11:49;;;;;;;0.10;0.10;;;20.90;99.90;;;;;;5146724;27;20039;-66
2023/06/25 00:14:15;;;;;;;0.17;0.17;;;20.90;99.90;;;;;;5140802;27;20047;-66
2023/06/25 00:16:40;;;;;;;0.17;0.17;;;20.90;99.90;;;;;;5148253;27;20078;-66
2023/06/25 00:19:07;;;;;;;0.08;0.08;;;21.00;99.90;;;;;;5143797;27;20122;-66
2023/06/25 00:21:32;;;;;;;0.45;0.45;;;20.90;99.90;;;;;;5146658;27;20049;-66
2023/06/25 00:23:58;;;;;;;1.95;0.68;;;20.90;99.90;;;;;;5145877;27;20031;-66
2023/06/25 00:26:23;;;;;;;0.35;0.32;;;20.80;99.90;;;;;;5146103;27;20043;-67
2023/06/25 00:28:50;;;;;;;0.55;0.50;;;20.70;99.90;;;;;;5147855;27;20053;-66
2023/06/25 00:31:16;;;;;;;0.10;0.10;;;20.90;99.90;;;;;;5139753;27;20108;-66
2023/06/25 00:33:42;;;;;;;0.25;0.25;;;20.80;99.90;;;;;;5143929;27;20039;-66
2023/06/25 00:36:08;;;;;;;1.10;0.60;;;20.80;99.90;;;;;;5149451;27;20133;-67
2023/06/25 00:38:38;;;;;;;0.00;0.00;;;20.80;99.90;;;;;;5137588;27;20127;-66
2023/06/25 00:41:11;;;;;;;0.15;0.10;;;20.80;99.90;;;;;;5147476;27;20066;-67
2023/06/25 00:43:41;;;;;;;0.22;0.20;;;20.90;99.90;;;;;;5146282;27;20031;-66
2023/06/25 00:46:12;;;;;;;0.20;0.20;;;20.80;99.90;;;;;;5145276;27;20046;-66
2023/06/25 00:48:39;;;;;;;0.10;0.00;;;20.70;99.90;;;;;;5150459;27;20122;-66
2023/06/25 00:51:05;;;;;;;0.20;0.20;;;20.70;99.90;;;;;;5141365;27;20113;-66
2023/06/25 00:53:36;;;;;;;0.00;0.00;;;20.70;99.90;;;;;;5146354;27;20548;-66
2023/06/25 00:56:02;;;;;;;0.95;0.20;;;20.70;99.90;;;;;;5153989;27;20060;-66
2023/06/25 00:58:28;;;;;;;0.32;0.32;;;20.70;99.90;;;;;;5147091;27;20062;-66
2023/06/25 01:00:57;;;;;;;4.82;1.02;;;20.70;99.90;;;;;;5145142;27;20043;-66
2023/06/25 01:03:32;;;;;;;1.08;1.02;;;20.60;99.90;;;;;;5143535;27;20043;-66
2023/06/25 01:06:15;;;;;;;0.00;0.00;;;20.70;99.90;;;;;;5151323;27;20039;-66
2023/06/25 01:08:49;;;;;;;0.25;0.25;;;20.60;99.90;;;;;;5146821;27;20064;-66
2023/06/25 01:11:15;;;;;;;0.00;0.00;;;20.50;99.90;;;;;;5145061;27;20046;-66
2023/06/25 01:13:40;;;;;;;0.10;0.10;;;20.50;99.90;;;;;;5143707;27;20051;-66
2023/06/25 01:16:06;;;;;;;0.85;0.30;;;20.50;99.90;;;;;;5144212;27;20102;-66
2023/06/25 01:18:32;;;;;;;0.80;0.30;;;20.40;99.90;;;;;;5127937;27;20090;-66
2023/06/25 01:21:00;;;;;;;0.00;0.00;;;20.40;99.90;;;;;;5142560;27;20053;-66
2023/06/25 01:23:25;;;;;;;1.55;0.20;;;20.40;99.90;;;;;;5145736;27;20043;-66
2023/06/25 01:25:51;;;;;;;0.32;0.32;;;20.30;99.90;;;;;;5143590;27;20050;-66
2023/06/25 01:28:21;;;;;;;0.45;0.45;;;20.40;99.90;;;;;;5144094;27;20090;-66
2023/06/25 01:30:48;;;;;;;0.75;0.52;;;20.40;99.90;;;;;;5146579;27;20085;-66
2023/06/25 01:33:16;;;;;;;0.13;0.13;;;20.30;99.90;;;;;;5148519;27;20043;-66
2023/06/25 01:35:42;;;;;;;0.82;0.28;;;20.20;99.90;;;;;;5148257;27;20076;-67
2023/06/25 01:38:08;;;;;;;2.72;0.52;;;20.30;99.90;;;;;;5124689;27;20058;-66
2023/06/25 01:40:33;;;;;;;0.03;0.03;;;20.20;99.90;;;;;;5144366;27;20047;-66
2023/06/25 01:43:00;;;;;;;1.08;0.55;;;20.10;99.90;;;;;;5148230;27;20039;-66
2023/06/25 01:45:26;;;;;;;0.15;0.10;;;20.10;99.90;;;;;;5143724;27;20486;-66
2023/06/25 01:47:51;;;;;;;2.45;1.05;;;20.10;99.90;;;;;;5143569;27;20050;-66
2023/06/25 01:50:17;;;;;;;0.00;0.00;;;20.10;99.90;;;;;;5142382;27;20078;-66
2023/06/25 01:52:42;;;;;;;10.77;0.93;;;20.10;99.90;;;;;;5145687;27;20504;-66
2023/06/25 01:55:08;;;;;;;0.00;0.00;;;20.10;99.90;;;;;;5145436;27;20465;-66
2023/06/25 01:57:34;;;;;;;2.42;1.30;;;20.10;99.90;;;;;;5147730;27;20051;-66
2023/06/25 02:00:00;;;;;;;0.47;0.47;;;20.10;99.90;;;;;;5145646;27;20054;-66
2023/06/25 02:02:25;;;;;;;0.45;0.40;;;20.00;99.90;;;;;;5143200;27;20084;-66
2023/06/25 02:04:51;;;;;;;2.63;0.28;;;20.00;99.90;;;;;;5145322;27;20043;-66
2023/06/25 02:07:16;;;;;;;0.17;0.17;;;20.00;99.90;;;;;;5144173;27;20500;-67
2023/06/25 02:09:42;;;;;;;1.02;0.85;;;20.00;99.90;;;;;;5140998;27;20043;-66
2023/06/25 02:12:08;;;;;;;0.50;0.50;;;20.00;99.90;;;;;;5146694;27;20034;-66
2023/06/25 02:14:33;;;;;;;0.85;0.77;;;19.90;99.90;;;;;;5141661;27;20039;-66
2023/06/25 02:16:59;;;;;;;0.63;0.63;;;20.00;99.90;;;;;;5141415;27;20504;-66
2023/06/25 02:19:25;;;;;;;0.50;0.50;;;19.90;99.90;;;;;;5144414;27;20035;-66
2023/06/25 02:21:50;;;;;;;0.55;0.55;;;19.90;99.90;;;;;;5141860;27;20066;-66
2023/06/25 02:24:16;;;;;;;0.25;0.25;;;19.90;99.90;;;;;;5141999;27;20050;-66
2023/06/25 02:26:42;;;;;;;0.35;0.35;;;19.90;99.90;;;;;;5144722;27;20034;-66
2023/06/25 02:29:07;;;;;;;0.47;0.47;;;19.90;99.90;;;;;;5153004;27;20053;-66
2023/06/25 02:31:33;;;;;;;0.70;0.63;;;19.90;99.90;;;;;;5143495;27;20059;-66
2023/06/25 02:33:58;;;;;;;3.28;0.43;;;19.90;99.90;;;;;;5147635;27;20043;-66
2023/06/25 02:36:24;;;;;;;0.45;0.38;;;19.90;99.90;;;;;;5141003;27;20493;-66
2023/06/25 02:38:49;;;;;;;0.90;0.80;;;19.80;99.90;;;;;;5143384;27;20046;-66
2023/06/25 02:41:15;;;;;;;0.25;0.25;;;19.80;99.90;;;;;;5144913;27;20031;-66
2023/06/25 02:43:41;;;;;;;1.20;1.05;;;19.80;99.90;;;;;;5143143;27;20046;-66
2023/06/25 02:46:06;;;;;;;0.57;0.40;;;19.80;99.90;;;;;;5125695;27;20038;-66
2023/06/25 02:48:32;;;;;;;0.28;0.17;;;19.70;99.90;;;;;;5152866;27;20127;-66
2023/06/25 02:50:57;;;;;;;0.70;0.70;;;19.70;99.90;;;;;;5142529;27;20065;-66
2023/06/25 02:53:23;;;;;;;0.47;0.47;;;19.70;99.90;;;;;;5138924;27;20035;-66
2023/06/25 02:55:49;;;;;;;0.43;0.43;;;19.70;99.90;;;;;;5141215;27;20173;-66
2023/06/25 02:58:14;;;;;;;0.20;0.20;;;19.70;99.90;;;;;;5142544;27;20031;-66
2023/06/25 03:00:40;;;;;;;0.85;0.55;;;19.70;99.90;;;;;;5144219;27;20050;-66
2023/06/25 03:03:06;;;;;;;1.15;0.82;;;19.70;99.90;;;;;;5136561;27;20066;-66
2023/06/25 03:05:32;;;;;;;0.93;0.77;;;19.70;99.90;;;;;;5143856;27;20114;-66
2023/06/25 03:07:58;;;;;;;0.73;0.52;;;19.70;99.90;;;;;;5131901;27;20188;-66
2023/06/25 03:10:27;;;;;;;0.77;0.77;;;19.60;99.90;;;;;;5141025;27;20590;-66
2023/06/25 03:12:53;;;;;;;0.60;0.60;;;19.60;99.90;;;;;;5136143;27;20043;-66
2023/06/25 03:15:18;;;;;;;5.50;0.75;;;19.60;99.90;;;;;;5147249;27;20387;-66
2023/06/25 03:17:45;;;;;;;0.00;0.00;;;19.60;99.90;;;;;;5144286;27;20385;-66
2023/06/25 03:20:11;;;;;;;0.47;0.47;;;19.60;99.90;;;;;;5142814;27;20378;-66
2023/06/25 03:22:37;;;;;;;4.70;0.95;;;19.60;99.90;;;;;;5141271;27;20050;-66
2023/06/25 03:25:03;;;;;;;0.35;0.35;;;19.60;99.90;;;;;;5146225;27;20039;-66
2023/06/25 03:27:31;;;;;;;0.50;0.50;;;19.60;99.90;;;;;;5143156;27;20084;-66
2023/06/25 03:29:56;;;;;;;0.13;0.13;;;19.50;99.90;;;;;;5144254;27;20027;-66
2023/06/25 03:32:22;;;;;;;0.30;0.30;;;19.50;99.90;;;;;;5142219;27;20455;-66
2023/06/25 03:34:48;;;;;;;1.10;0.85;;;19.50;99.90;;;;;;5141245;27;20054;-66
2023/06/25 03:37:13;;;;;;;1.65;0.60;;;19.40;99.90;;;;;;5145919;27;20046;-66
2023/06/25 03:39:39;;;;;;;3.50;1.38;;;19.40;99.90;;;;;;5149345;27;20042;-66
2023/06/25 03:42:05;;;;;;;0.43;0.43;;;19.40;99.90;;;;;;5140101;27;20031;-66
2023/06/25 03:44:31;;;;;;;0.38;0.38;;;19.40;99.90;;;;;;5147395;27;20046;-66
2023/06/25 03:46:56;;;;;;;0.15;0.15;;;19.40;99.90;;;;;;5143028;27;20043;-66
2023/06/25 03:49:22;;;;;;;0.70;0.55;;;19.40;99.90;;;;;;5144511;27;20045;-66
2023/06/25 03:51:47;;;;;;;0.10;0.10;;;19.40;99.90;;;;;;5145968;27;20298;-66
2023/06/25 03:54:13;;;;;;;0.95;0.68;;;19.40;99.90;;;;;;5144960;27;20130;-66
2023/06/25 03:56:39;;;;;;;0.55;0.52;;;19.40;99.90;;;;;;5145451;27;20047;-66
2023/06/25 03:59:04;;;;;;;0.22;0.22;;;19.40;99.90;;;;;;5147314;27;20131;-66
2023/06/25 04:01:30;;;;;;;0.68;0.68;;;19.50;99.90;;;;;;5144337;27;20046;-66
2023/06/25 04:03:55;;;;;;;0.05;0.05;;;19.50;99.90;;;;;;5145143;27;20035;-66
2023/06/25 04:06:21;;;;;;;0.17;0.17;;;19.40;99.90;;;;;;5145021;27;20159;-66
2023/06/25 04:08:46;;;;;;;0.10;0.10;;;19.50;99.90;;;;;;5150347;27;20050;-66
2023/06/25 04:11:12;;;;;;;0.45;0.22;;;19.50;99.90;;;;;;5140517;27;20071;-66
2023/06/25 04:13:38;;;;;;;0.20;0.20;;;19.50;99.90;;;;;;5146408;27;20065;-66
2023/06/25 04:16:06;;;;;;;1.42;0.63;;;19.50;99.90;;;;;;5143866;27;20039;-66
2023/06/25 04:18:32;;;;;;;2.05;0.80;;;19.60;99.90;;;;;;5153390;27;20394;-66
2023/06/25 04:20:57;;;;;;;0.35;0.35;;;19.50;99.90;;;;;;5145244;27;20038;-66
2023/06/25 04:23:23;;;;;;;1.30;0.40;;;19.50;99.90;;;;;;5142648;27;20043;-66
2023/06/25 04:25:48;;;;;;;0.00;0.00;;;19.60;99.90;;;;;;5147844;27;20482;-66
2023/06/25 04:28:18;;;;;;;0.10;0.10;;;19.60;99.90;;;;;;5126295;27;20047;-66
2023/06/25 04:30:43;;;;;;;0.40;0.40;;;19.60;99.90;;;;;;5144340;27;20035;-66
2023/06/25 04:33:09;;;;;;;0.52;0.52;;;19.60;99.90;;;;;;5125402;27;20050;-66
2023/06/25 04:35:34;;;;;;;0.10;0.10;;;19.60;99.90;;;;;;5150061;27;20042;-66
2023/06/25 04:38:00;;;;;;;0.00;0.00;;;19.70;99.90;;;;;;5143781;27;20091;-66
2023/06/25 04:40:26;;;;;;;0.70;0.68;;;19.70;99.90;;;;;;5146883;27;20388;-65
2023/06/25 04:42:51;;;;;;;0.38;0.38;;;19.80;99.90;;;;;;5143978;27;20088;-66
2023/06/25 04:45:18;;;;;;;0.10;0.10;;;19.80;99.90;;;;;;5143678;27;20069;-66
2023/06/25 04:47:44;;;;;;;1.23;0.80;;;19.80;99.90;;;;;;5146858;27;20462;-66
2023/06/25 04:50:10;;;;;;;1.25;1.15;;;19.80;99.90;;;;;;5144170;27;20084;-66
2023/06/25 04:52:35;;;;;;;0.50;0.50;;;19.80;99.90;;;;;;5145971;27;20046;-66
2023/06/25 04:55:01;;;;;;;0.30;0.30;;;19.80;99.90;;;;;;5143789;27;20453;-66
2023/06/25 04:57:26;;;;;;;0.22;0.22;;;19.90;99.90;;;;;;5147087;27;20160;-68
2023/06/25 04:59:52;;;;;;;0.22;0.10;;;19.90;99.90;;;;;;5143763;27;20110;-66
2023/06/25 05:02:18;;;;;;;0.22;0.20;;;19.90;99.90;;;;;;5127016;27;20081;-66
2023/06/25 05:04:43;;;;;;;12.05;0.60;;;20.00;99.90;;;;;;5143643;27;20047;-66
2023/06/25 05:07:09;;;;;;;0.45;0.45;;;20.00;99.90;;;;;;5148770;27;20107;-66
2023/06/25 05:09:35;;;;;;;0.13;0.13;;;20.00;99.90;;;;;;5143183;27;20043;-66
2023/06/25 05:12:01;;;;;;;0.35;0.35;;;20.10;99.90;;;;;;5142807;27;20382;-66
2023/06/25 05:14:27;;;;;;;0.57;0.57;;;20.10;99.90;;;;;;5145717;27;20035;-66
2023/06/25 05:16:53;;;;;;;0.25;0.20;;;20.10;99.90;;;;;;5144705;27;20039;-66
2023/06/25 05:19:18;;;;;;;0.25;0.25;;;20.20;99.90;;;;;;5146139;27;20228;-66
2023/06/25 05:21:44;;;;;;;0.20;0.20;;;20.20;99.90;;;;;;5143546;27;20034;-66
2023/06/25 05:24:10;;;;;;;0.40;0.40;;;20.30;99.90;;;;;;5144555;27;20042;-66
2023/06/25 05:26:35;;;;;;;0.00;0.00;;;20.30;99.90;;;;;;5127078;27;20116;-66
2023/06/25 05:29:02;;;;;;;0.20;0.13;;;20.40;99.90;;;;;;5147531;27;20043;-66
2023/06/25 05:31:28;;;;;;;0.05;0.05;;;20.40;99.90;;;;;;5150251;27;20086;-66
2023/06/25 05:33:54;;;;;;;0.38;0.38;;;20.50;99.90;;;;;;5142441;27;20103;-66
2023/06/25 05:36:21;;;;;;;0.30;0.30;;;20.50;99.90;;;;;;5146973;27;20046;-66
2023/06/25 05:38:47;;;;;;;0.43;0.43;;;20.60;99.90;;;;;;5143126;27;20043;-66
2023/06/25 05:41:13;;;;;;;0.70;0.70;;;20.60;99.90;;;;;;5145486;27;20030;-66
2023/06/25 05:43:38;;;;;;;1.10;1.02;;;20.60;99.90;;;;;;5144108;27;20031;-66
2023/06/25 05:46:04;;;;;;;0.15;0.15;;;20.70;99.90;;;;;;5143353;27;20045;-66
2023/06/25 05:48:30;;;;;;;0.00;0.00;;;20.80;99.90;;;;;;5153442;27;20122;-66
2023/06/25 05:50:55;;;;;;;0.08;0.08;;;20.80;99.90;;;;;;5142534;27;20094;-66
2023/06/25 05:53:24;;;;;;;1.88;0.28;;;20.80;99.90;;;;;;5145066;27;20473;-66
2023/06/25 05:55:50;;;;;;;0.17;0.17;;;20.80;99.90;;;;;;5140849;27;20066;-66
2023/06/25 05:58:16;;;;;;;0.32;0.32;;;20.90;99.90;;;;;;5145882;27;20042;-66
2023/06/25 06:00:42;;;;;;;0.13;0.13;;;20.90;99.90;;;;;;5124776;27;20064;-66
2023/06/25 06:03:07;;;;;;;0.60;0.35;;;21.00;99.90;;;;;;5143613;27;20077;-66
2023/06/25 06:05:33;;;;;;;0.45;0.40;;;21.00;99.90;;;;;;5145045;27;20039;-66
2023/06/25 06:07:58;;;;;;;0.85;0.40;;;21.10;99.90;;;;;;5143264;27;20046;-66
2023/06/25 06:10:24;;;;;;;0.05;0.05;;;21.10;99.90;;;;;;5146582;27;20065;-66
2023/06/25 06:12:50;;;;;;;0.00;0.00;;;21.20;99.90;;;;;;5139717;27;20369;-66
2023/06/25 06:15:16;;;;;;;0.45;0.45;;;21.30;99.90;;;;;;5150414;27;20042;-66
2023/06/25 06:17:41;;;;;;;1.15;0.22;;;21.30;99.90;;;;;;5144850;27;20050;-66
2023/06/25 06:20:07;;;;;;;1.08;0.60;;;21.40;99.90;;;;;;5144917;27;20494;-66
2023/06/25 06:22:33;;;;;;;0.00;0.00;;;21.40;99.90;;;;;;5150604;27;20492;-66
2023/06/25 06:24:58;;;;;;;0.75;0.45;;;21.50;99.90;;;;;;5153087;27;20042;-66
2023/06/25 06:27:24;;;;;;;0.90;0.17;;;21.60;99.90;;;;;;5143454;27;20126;-66
2023/06/25 06:29:50;;;;;;;0.20;0.20;;;21.60;99.90;;;;;;5140236;27;20117;-66
2023/06/25 06:32:15;;;;;;;0.40;0.40;;;21.70;99.90;;;;;;5141887;27;20394;-66
2023/06/25 06:34:41;;;;;;;1.52;0.45;;;21.70;99.90;;;;;;5145945;27;20042;-66
2023/06/25 06:37:07;;;;;;;0.10;0.10;;;21.80;99.90;;;;;;5141326;27;20031;-66
2023/06/25 06:39:33;;;;;;;0.10;0.10;;;21.90;99.90;;;;;;5123897;27;20047;-66
2023/06/25 06:41:58;;;;;;;0.08;0.08;;;22.00;99.90;;;;;;5145561;27;20073;-66
2023/06/25 06:44:25;;;;;;;0.03;0.03;;;22.10;99.90;;;;;;5138516;27;20074;-66
2023/06/25 06:46:51;;;;;;;0.10;0.10;;;22.20;99.90;;;;;;5147865;27;20118;-66
2023/06/25 06:49:17;;;;;;;0.30;0.30;;;22.20;99.90;;;;;;5142112;27;20126;-66
2023/06/25 06:51:43;;;;;;;0.45;0.40;;;22.30;99.90;;;;;;5140837;27;20111;-66
2023/06/25 06:54:08;;;;;;;0.10;0.10;;;22.40;99.90;;;;;;5145074;27;20039;-66
2023/06/25 06:56:34;;;;;;;0.45;0.20;;;22.50;99.90;;;;;;5143136;27;20035;-66
2023/06/25 06:59:00;;;;;;;1.80;0.43;;;22.40;99.90;;;;;;5143103;27;20397;-66
2023/06/25 07:01:26;;;;;;;0.45;0.45;;;22.50;99.90;;;;;;5145091;27;20042;-66
2023/06/25 07:03:52;;;;;;;0.90;0.80;;;22.50;99.90;;;;;;5144319;27;20047;-67
2023/06/25 07:06:18;;;;;;;0.75;0.75;;;22.60;99.90;;;;;;5141178;27;20574;-66
2023/06/25 07:08:43;;;;;;;0.10;0.10;;;22.60;99.90;;;;;;5143182;27;20043;-66
2023/06/25 07:11:09;;;;;;;0.00;0.00;;;22.70;99.90;;;;;;5145782;27;20033;-66
2023/06/25 07:13:34;;;;;;;0.45;0.40;;;22.80;99.90;;;;;;5141196;27;20043;-66
2023/06/25 07:16:00;;;;;;;0.00;0.00;;;22.90;99.90;;;;;;5126312;27;20050;-66
2023/06/25 07:18:26;;;;;;;0.00;0.00;;;22.90;99.90;;;;;;5141257;27;20034;-66
2023/06/25 07:20:51;;;;;;;0.30;0.30;;;23.00;99.90;;;;;;5141239;27;20446;-66
2023/06/25 07:23:17;;;;;;;0.10;0.10;;;23.10;99.90;;;;;;5142764;27;20474;-66
2023/06/25 07:25:42;;;;;;;0.17;0.08;;;23.10;99.90;;;;;;5144963;27;20034;-67
2023/06/25 07:28:09;;;;;;;0.10;0.10;;;23.20;99.90;;;;;;5148716;27;20469;-67
2023/06/25 07:30:35;;;;;;;0.20;0.20;;;23.30;99.90;;;;;;5142689;27;20066;-67
2023/06/25 07:33:00;;;;;;;0.10;0.10;;;23.30;99.90;;;;;;5147265;27;20222;-67
2023/06/25 07:35:26;;;;;;;0.85;0.65;;;23.40;99.90;;;;;;5145273;27;20038;-67
2023/06/25 07:37:52;;;;;;;0.20;0.20;;;23.40;99.90;;;;;;5139919;27;20034;-67
2023/06/25 07:40:17;;;;;;;0.35;0.20;;;23.50;99.90;;;;;;5125759;27;20054;-67
2023/06/25 07:42:43;;;;;;;0.00;0.00;;;23.50;99.90;;;;;;5147566;27;20045;-66
2023/06/25 07:45:09;;;;;;;0.40;0.40;;;23.60;99.90;;;;;;5129494;27;20050;-66
2023/06/25 07:47:35;;;;;;;0.10;0.10;;;23.60;99.90;;;;;;5146919;27;20065;-66
2023/06/25 07:50:01;;;;;;;0.30;0.30;;;23.70;99.90;;;;;;5145184;27;20585;-67
2023/06/25 07:52:27;;;;;;;0.10;0.10;;;23.80;99.90;;;;;;5145962;27;20046;-67
2023/06/25 07:54:53;;;;;;;0.03;0.03;;;23.90;99.90;;;;;;5126188;27;20069;-67
2023/06/25 07:57:19;;;;;;;0.60;0.50;;;23.90;99.90;;;;;;5147702;27;20045;-67
2023/06/25 07:59:44;;;;;;;0.20;0.10;;;23.90;99.90;;;;;;5145872;27;20042;-67
2023/06/25 08:02:10;;;;;;;0.30;0.30;;;24.00;99.90;;;;;;5147515;27;20431;-67
2023/06/25 08:04:36;;;;;;;0.40;0.40;;;24.00;99.90;;;;;;5123555;27;20133;-67
2023/06/25 08:07:02;;;;;;;0.40;0.40;;;24.10;99.90;;;;;;5153427;27;20039;-67
2023/06/25 08:09:27;;;;;;;0.38;0.35;;;24.20;99.90;;;;;;5145180;27;20054;-67
2023/06/25 08:11:53;;;;;;;0.38;0.25;;;24.20;99.90;;;;;;5147208;27;20494;-67
2023/06/25 08:14:19;;;;;;;12.27;0.68;;;24.40;99.90;;;;;;5144808;27;20039;-67
2023/06/25 08:16:44;;;;;;;0.10;0.10;;;24.40;99.90;;;;;;5144095;27;20439;-67
2023/06/25 08:19:10;;;;;;;0.60;0.55;;;24.50;99.90;;;;;;5145909;27;20068;-67
2023/06/25 08:21:36;;;;;;;0.20;0.20;;;24.50;99.90;;;;;;5147532;27;20042;-67
2023/06/25 08:24:01;;;;;;;0.20;0.20;;;24.50;99.90;;;;;;5143569;27;20049;-67
2023/06/25 08:26:27;;;;;;;1.13;0.43;;;24.60;99.90;;;;;;5146788;27;20103;-67
2023/06/25 08:28:52;;;;;;;0.00;0.00;;;24.70;99.90;;;;;;5147967;27;20061;-67
2023/06/25 08:31:18;;;;;;;0.10;0.10;;;24.80;99.90;;;;;;5144176;27;20123;-67
2023/06/25 08:33:44;;;;;;;1.00;0.80;;;24.90;99.90;;;;;;5153320;27;20125;-67
2023/06/25 08:36:09;;;;;;;0.10;0.05;;;25.00;99.90;;;;;;5147301;27;20031;-67
2023/06/25 08:38:36;;;;;;;0.00;0.00;;;25.00;99.90;;;;;;5144087;27;20057;-67
2023/06/25 08:41:02;;;;;;;4.78;1.38;;;25.10;99.90;;;;;;5131287;27;20039;-67
2023/06/25 08:43:28;;;;;;;0.47;0.20;;;25.10;99.90;;;;;;5143463;27;20066;-67
2023/06/25 08:45:54;;;;;;;0.52;0.43;;;25.20;99.90;;;;;;5150086;27;20073;-67
2023/06/25 08:48:21;;;;;;;0.10;0.10;;;25.20;99.90;;;;;;5144444;27;20054;-67
2023/06/25 08:50:55;;;;;;;0.22;0.22;;;25.30;99.90;;;;;;5144055;27;20051;-67
2023/06/25 08:53:23;;;;;;;0.00;0.00;;;25.20;99.90;;;;;;5143939;27;20043;-68
2023/06/25 08:55:51;;;;;;;0.35;0.35;;;25.30;99.90;;;;;;5149976;27;20088;-67
2023/06/25 08:58:16;;;;;;;0.63;0.20;;;25.40;99.90;;;;;;5146308;27;20478;-67
2023/06/25 09:00:42;;;;;;;0.00;0.00;;;25.50;99.90;;;;;;5147100;27;20055;-67
2023/06/25 09:03:08;;;;;;;0.75;0.63;;;25.70;99.90;;;;;;5147453;27;20030;-67
2023/06/25 09:05:33;;;;;;;0.10;0.10;;;25.70;99.90;;;;;;5146591;27;20038;-67
2023/06/25 09:07:59;;;;;;;0.20;0.20;;;25.70;99.90;;;;;;5145410;27;20050;-67
2023/06/25 09:10:26;;;;;;;0.22;0.22;;;25.70;99.90;;;;;;5146135;27;20046;-67
2023/06/25 09:12:52;;;;;;;0.85;0.52;;;25.70;99.90;;;;;;5147955;27;20050;-67
2023/06/25 09:15:22;;;;;;;0.00;0.00;;;25.70;99.90;;;;;;5139761;27;20073;-67
2023/06/25 09:17:49;;;;;;;0.08;0.08;;;25.70;99.90;;;;;;5145312;27;20074;-66
2023/06/25 09:20:15;;;;;;;0.00;0.00;;;25.80;99.90;;;;;;5144540;27;20799;-67
2023/06/25 09:22:57;;;;;;;0.40;0.20;;;26.00;99.90;;;;;;5146193;27;20090;-68
2023/06/25 09:25:28;;;;;;;0.75;0.63;;;26.10;99.90;;;;;;5143477;27;20438;-68
2023/06/25 09:27:55;;;;;;;0.32;0.20;;;26.20;99.90;;;;;;5143139;27;20046;-68
2023/06/25 09:30:24;;;;;;;0.00;0.00;;;26.20;99.90;;;;;;5143344;27;20058;-68
2023/06/25 09:32:51;;;;;;;0.13;0.10;;;26.40;99.90;;;;;;5141465;27;20043;-68
2023/06/25 09:35:29;;;;;;;0.95;0.93;;;26.50;99.90;;;;;;5144595;27;20055;-68
2023/06/25 09:37:55;;;;;;;1.35;0.40;;;26.40;99.90;;;;;;5140685;27;20039;-68
2023/06/25 09:40:21;;;;;;;0.08;0.08;;;26.60;99.90;;;;;;5124089;27;20410;-68
2023/06/25 09:42:48;;;;;;;0.00;0.00;;;26.70;99.90;;;;;;5142961;27;20432;-68
2023/06/25 09:45:15;;;;;;;0.05;0.00;;;26.70;99.90;;;;;;5142867;27;20043;-68
2023/06/25 09:47:43;;;;;;;1.27;0.47;;;27.00;99.90;;;;;;5140466;27;20363;-68
2023/06/25 09:50:35;;;;;;;0.00;0.00;;;27.30;99.90;;;;;;5142711;27;20047;-68
2023/06/25 09:53:10;;;;;;;0.13;0.07;;;27.70;99.90;;;;;;5143452;27;20039;-68
2023/06/25 09:55:37;;;;;;;0.03;0.03;;;28.10;99.90;;;;;;5150786;27;20078;-68
2023/06/25 09:58:04;;;;;;;0.28;0.28;;;28.30;99.90;;;;;;5135815;27;20038;-69
2023/06/25 10:00:31;;;;;;;0.17;0.10;;;28.30;99.60;;;;;;5143876;27;20046;-68
2023/06/25 10:02:57;;;;;;;0.10;0.00;;;28.50;99.90;;;;;;5148626;27;20118;-69
2023/06/25 10:05:23;;;;;;;0.10;0.10;;;28.70;99.90;;;;;;5140348;27;20045;-68
2023/06/25 10:07:48;;;;;;;3.30;0.40;;;28.80;99.90;;;;;;5145013;27;20042;-69
2023/06/25 10:10:22;;;;;;;2.40;0.40;;;28.90;99.30;;;;;;5124221;27;20078;-68
2023/06/25 10:12:49;;;;;;;0.30;0.30;;;29.00;99.90;;;;;;5138579;27;20039;-68
2023/06/25 10:15:15;;;;;;;0.30;0.25;;;29.10;99.50;;;;;;5143699;27;20103;-68
2023/06/25 10:17:50;;;;;;;0.10;0.10;;;29.10;98.70;;;;;;5142545;27;20451;-68
2023/06/25 10:20:25;;;;;;;0.32;0.32;;;29.00;98.40;;;;;;5144196;27;20057;-69
2023/06/25 10:23:10;;;;;;;0.55;0.25;;;29.10;99.00;;;;;;5144484;27;20168;-68
2023/06/25 10:25:39;;;;;;;0.15;0.10;;;29.20;98.90;;;;;;5142231;27;20031;-68
2023/06/25 10:28:12;;;;;;;0.30;0.30;;;29.20;98.20;;;;;;5141194;27;20493;-68
2023/06/25 10:30:44;;;;;;;0.00;0.00;;;29.40;98.40;;;;;;5142148;27;20131;-68
2023/06/25 10:33:14;;;;;;;0.65;0.60;;;29.50;98.10;;;;;;5123989;27;20058;-68
2023/06/25 10:35:43;;;;;;;0.20;0.20;;;29.70;97.50;;;;;;5149467;27;20068;-69
2023/06/25 10:38:09;;;;;;;0.47;0.22;;;29.60;98.50;;;;;;5140960;27;20050;-69
2023/06/25 10:40:39;;;;;;;0.13;0.13;;;29.50;98.10;;;;;;5147249;27;20043;-68
2023/06/25 10:43:05;;;;;;;0.00;0.00;;;29.70;98.30;;;;;;5138745;27;20034;-69
2023/06/25 10:45:31;;;;;;;0.10;0.10;;;29.80;97.50;;;;;;5144515;27;20039;-69
2023/06/25 10:48:10;;;;;;;0.10;0.10;;;29.60;97.70;;;;;;5141531;27;20039;-68
2023/06/25 10:50:35;;;;;;;0.03;0.03;;;29.50;97.60;;;;;;5147453;27;20366;-69
2023/06/25 10:53:02;;;;;;;0.20;0.20;;;29.70;98.00;;;;;;5147589;27;20118;-68
2023/06/25 10:55:28;;;;;;;0.10;0.10;;;29.60;98.00;;;;;;5145785;27;20046;-69
2023/06/25 10:58:01;;;;;;;0.10;0.10;;;29.70;97.60;;;;;;5139955;27;20129;-69
2023/06/25 11:00:27;;;;;;;0.00;0.00;;;29.80;97.90;;;;;;5143397;27;20427;-69
2023/06/25 11:02:54;;;;;;;0.30;0.30;;;29.80;97.60;;;;;;5143352;27;20074;-69
2023/06/25 11:05:21;;;;;;;0.08;0.08;;;30.00;97.70;;;;;;5141386;27;20133;-68
2023/06/25 11:07:54;;;;;;;0.00;0.00;;;30.30;97.40;;;;;;5144012;27;20095;-68
2023/06/25 11:10:22;;;;;;;0.25;0.25;;;30.50;97.80;;;;;;5141630;27;20110;-68
2023/06/25 11:12:48;;;;;;;0.00;0.00;;;30.50;97.20;;;;;;5135757;27;20134;-69
2023/06/25 11:15:16;;;;;;;0.00;0.00;;;30.70;96.60;;;;;;5135422;27;20053;-68
2023/06/25 11:17:42;;;;;;;0.75;0.47;;;30.90;96.40;;;;;;5144555;27;20385;-69
2023/06/25 11:20:08;;;;;;;0.65;0.45;;;30.70;96.70;;;;;;5141612;27;20072;-69
2023/06/25 11:22:39;;;;;;;0.00;0.00;;;31.00;96.30;;;;;;5141137;27;20046;-69
2023/06/25 11:25:06;;;;;;;0.00;0.00;;;31.10;95.90;;;;;;5140553;27;20042;-69
2023/06/25 11:27:33;;;;;;;0.13;0.13;;;31.00;95.10;;;;;;5139870;27;20481;-69
2023/06/25 11:30:01;;;;;;;0.00;0.00;;;31.00;95.20;;;;;;5133575;27;20409;-69
2023/06/25 11:32:27;;;;;;;0.40;0.30;;;30.90;94.90;;;;;;5141726;27;20051;-69
2023/06/25 11:34:53;;;;;;;0.00;0.00;;;31.10;95.10;;;;;;5144511;27;20047;-69
2023/06/25 11:37:19;;;;;;;0.60;0.32;;;31.10;94.80;;;;;;5135898;27;20381;-69
2023/06/25 11:39:46;;;;;;;0.10;0.10;;;31.00;93.90;;;;;;5137549;27;20096;-69
2023/06/25 11:42:17;;;;;;;0.38;0.28;;;30.80;93.60;;;;;;5146224;27;20533;-69
2023/06/25 11:44:43;;;;;;;0.13;0.13;;;31.00;94.20;;;;;;5143256;27;20056;-69
2023/06/25 11:47:10;;;;;;;0.10;0.10;;;31.00;93.70;;;;;;5144690;27;20498;-69
2023/06/25 11:49:37;;;;;;;0.10;0.10;;;31.10;94.10;;;;;;5143701;27;20080;-69
2023/06/25 11:52:03;;;;;;;12.85;0.55;;;31.20;93.40;;;;;;5141163;27;20495;-69
2023/06/25 11:54:29;;;;;;;0.00;0.00;;;31.50;93.70;;;;;;5139303;27;20177;-69
2023/06/25 11:56:54;;;;;;;0.32;0.10;;;31.60;93.30;;;;;;5140833;27;20043;-69
2023/06/25 11:59:20;;;;;;;0.05;0.05;;;31.80;92.70;;;;;;5144203;27;20087;-69
2023/06/25 12:01:45;;;;;;;0.00;0.00;;;31.80;91.90;;;;;;5142817;27;20042;-69
2023/06/25 12:04:11;;;;;;;0.00;0.00;;;32.10;92.50;;;;;;5138605;27;20037;-69
2023/06/25 12:06:37;;;;;;;0.17;0.17;;;32.40;92.60;;;;;;5143007;27;20054;-68
2023/06/25 12:09:03;;;;;;;0.00;0.00;;;32.50;92.50;;;;;;5142182;27;20039;-69
2023/06/25 12:11:29;;;;;;;0.20;0.20;;;32.70;91.90;;;;;;5146891;27;20038;-69
2023/06/25 12:13:55;;;;;;;0.20;0.20;;;32.50;91.90;;;;;;5125128;27;20535;-69
2023/06/25 12:16:20;;;;;;;0.30;0.25;;;32.50;92.10;;;;;;5143884;27;20466;-69
2023/06/25 12:18:46;;;;;;;0.00;0.00;;;32.70;91.70;;;;;;5147032;27;20442;-69
2023/06/25 12:21:12;;;;;;;0.28;0.10;;;32.80;92.00;;;;;;5144717;27;20134;-69
2023/06/25 12:23:37;;;;;;;21.08;3.20;;;32.90;91.50;;;;;;5146528;27;20038;-69
2023/06/25 12:26:03;;;;;;;0.05;0.05;;;33.00;91.70;;;;;;5147402;27;20031;-68
2023/06/25 12:28:29;;;;;;;0.17;0.17;;;33.00;92.20;;;;;;5144881;27;20092;-68
2023/06/25 12:30:55;;;;;;;0.15;0.15;;;33.00;91.10;;;;;;5144416;27;20083;-70
2023/06/25 12:33:21;;;;;;;0.00;0.00;;;32.80;91.00;;;;;;5146594;27;20125;-69
2023/06/25 12:35:47;;;;;;;0.20;0.10;;;32.80;91.10;;;;;;5144852;27;20034;-69
2023/06/25 12:38:12;;;;;;;2.30;0.95;;;33.10;90.90;;;;;;5145162;27;20054;-69
2023/06/25 12:40:39;;;;;;;1.10;0.35;;;33.30;90.00;;;;;;5143660;27;20043;-69
2023/06/25 12:43:04;;;;;;;0.00;0.00;;;33.70;91.10;;;;;;5152645;27;20385;-69